Time;durP1;ratioP1;P1;durP2;ratioP2;P2;SDS_P1;SDS_P2;PMS_P1;PMS_P2;Temp;Humidity;BMP_temperature;BMP_pressure;BME280_temperature;BME280_humidity;BME280_pressure;Samples;Min_cycle;Max_cycle;Signal;HPM_P1;HPM_P2
2023/04/13 00:00:51;;;;;;;5.00;2.58;;;;;;;5.49;100.00;162001.13;5069411;28;20043;-61
2023/04/13 00:03:17;;;;;;;3.92;2.90;;;;;;;5.44;100.00;161987.69;5070563;28;20027;-62
2023/04/13 00:05:43;;;;;;;6.40;3.28;;;;;;;5.39;100.00;161976.97;5069575;28;20055;-61
2023/04/13 00:08:08;;;;;;;5.35;2.97;;;;;;;5.34;100.00;161963.47;5070736;28;20032;-62
2023/04/13 00:10:35;;;;;;;13.00;3.67;;;;;;;5.30;100.00;161951.34;5072493;28;20634;-62
2023/04/13 00:13:02;;;;;;;3.20;2.85;;;;;;;5.34;100.00;161962.16;5091030;28;20106;-62
2023/04/13 00:15:27;;;;;;;5.05;3.15;;;;;;;5.29;100.00;161950.03;5089977;28;20040;-63
2023/04/13 00:17:53;;;;;;;3.83;3.45;;;;;;;5.22;100.00;161932.53;5090468;28;20405;-63
2023/04/13 00:20:18;;;;;;;5.22;3.75;;;;;;;5.17;100.00;161917.78;5089122;28;20109;-63
2023/04/13 00:22:46;;;;;;;7.07;3.70;;;;;;;5.14;100.00;161911.00;5090941;28;20032;-63
2023/04/13 00:25:16;;;;;;;2.90;2.70;;;;;;;5.11;100.00;161902.97;5088755;28;20035;-63
2023/04/13 00:27:42;;;;;;;4.15;3.60;;;;;;;5.09;100.00;161897.56;5071917;28;20391;-63
2023/04/13 00:30:11;;;;;;;4.70;3.25;;;;;;;5.12;100.00;161904.28;5069064;28;20047;-62
2023/04/13 00:32:37;;;;;;;3.50;2.75;;;;;;;5.11;100.00;161902.97;5070049;28;20024;-62
2023/04/13 00:35:03;;;;;;;4.88;2.85;;;;;;;5.14;100.00;161909.69;5068895;28;20060;-62
2023/04/13 00:37:29;;;;;;;5.90;2.58;;;;;;;5.18;100.00;161920.41;5070642;28;20063;-63
2023/04/13 00:39:55;;;;;;;5.22;2.15;;;;;;;5.13;100.00;161906.97;5068693;28;20491;-63
2023/04/13 00:42:20;;;;;;;4.25;2.60;;;;;;;5.12;100.00;161905.66;5070269;28;20024;-62
2023/04/13 00:44:46;;;;;;;3.22;3.03;;;;;;;5.14;100.00;161909.69;5069083;28;20041;-59
2023/04/13 00:47:12;;;;;;;4.63;2.28;;;;;;;5.15;100.00;161912.38;5070219;28;20032;-60
2023/04/13 00:49:38;;;;;;;5.35;3.28;;;;;;;5.16;100.00;161915.06;5068980;28;20043;-59
2023/04/13 00:52:07;;;;;;;3.08;2.75;;;;;;;5.14;100.00;161909.69;5070301;28;20012;-60
2023/04/13 00:54:34;;;;;;;4.60;2.17;;;;;;;5.14;100.00;161909.69;5069159;28;20044;-59
2023/04/13 00:57:00;;;;;;;3.33;2.95;;;;;;;5.11;100.00;161901.59;5070345;28;20383;-59
2023/04/13 00:59:27;;;;;;;3.00;2.72;;;;;;;5.14;100.00;161909.69;5069002;28;20487;-60
2023/04/13 01:01:56;;;;;;;2.47;1.92;;;;;;;5.18;100.00;161920.41;5076850;28;20028;-59
2023/04/13 01:04:32;;;;;;;7.57;3.42;;;;;;;5.21;100.00;161929.81;5089075;28;20044;-59
2023/04/13 01:07:29;;;;;;;4.55;2.50;;;;;;;5.17;100.00;161917.78;5090272;28;20019;-59
2023/04/13 01:10:09;;;;;;;3.20;2.58;;;;;;;5.19;100.00;161924.50;5088744;28;20039;-60
2023/04/13 01:12:58;;;;;;;7.50;3.35;;;;;;;5.21;100.00;161928.50;5090441;28;20048;-62
2023/04/13 01:15:24;;;;;;;5.25;3.28;;;;;;;5.21;100.00;161928.50;5089203;28;20043;-63
2023/04/13 01:17:55;;;;;;;7.55;2.88;;;;;;;5.20;100.00;161925.81;5090143;28;20035;-62
2023/04/13 01:20:22;;;;;;;2.35;2.20;;;;;;;5.13;100.00;161906.97;5071551;28;20045;-63
2023/04/13 01:22:54;;;;;;;3.50;2.50;;;;;;;5.07;100.00;161893.53;5070236;28;20024;-63
2023/04/13 01:25:39;;;;;;;2.50;2.30;;;;;;;5.02;100.00;161880.13;5069315;28;20051;-63
2023/04/13 01:28:08;;;;;;;7.18;2.97;;;;;;;4.97;100.00;161865.31;5070341;28;20060;-63
2023/04/13 01:30:36;;;;;;;3.38;2.40;;;;;;;4.91;100.00;161850.50;5068652;28;20037;-63
2023/04/13 01:33:03;;;;;;;4.50;2.90;;;;;;;4.89;100.00;161846.47;5069682;28;20032;-63
2023/04/13 01:35:30;;;;;;;6.07;2.63;;;;;;;4.88;100.00;161842.41;5068550;28;21004;-63
2023/04/13 01:37:58;;;;;;;2.67;2.47;;;;;;;4.87;100.00;161839.78;5070247;28;20051;-63
2023/04/13 01:40:27;;;;;;;2.25;2.10;;;;;;;4.87;100.00;161839.78;5068244;28;20094;-63
2023/04/13 01:42:52;;;;;;;4.15;3.00;;;;;;;4.84;100.00;161831.69;5070048;28;20032;-63
2023/04/13 01:45:48;;;;;;;3.42;2.97;;;;;;;4.87;100.00;161839.78;5070981;28;20036;-62
2023/04/13 01:48:18;;;;;;;2.95;2.67;;;;;;;4.88;100.00;161843.78;5078824;28;20497;-62
2023/04/13 01:50:53;;;;;;;2.92;2.72;;;;;;;4.90;100.00;161847.81;5092347;28;20043;-63
2023/04/13 01:53:24;;;;;;;4.07;2.70;;;;;;;4.92;100.00;161853.19;5093705;28;20111;-63
2023/04/13 01:55:49;;;;;;;8.93;3.97;;;;;;;4.94;100.00;161858.59;5091895;28;20514;-62
2023/04/13 01:58:17;;;;;;;5.50;2.97;;;;;;;4.88;100.00;161843.78;5093362;28;20062;-62
2023/04/13 02:00:43;;;;;;;4.25;3.05;;;;;;;4.95;100.00;161861.28;5091905;28;20040;-62
2023/04/13 02:03:10;;;;;;;6.13;2.70;;;;;;;4.94;100.00;161858.59;5081585;28;20038;-61
2023/04/13 02:05:36;;;;;;;3.08;2.20;;;;;;;4.96;100.00;161862.63;5071616;28;20109;-62
2023/04/13 02:08:06;;;;;;;10.55;3.60;;;;;;;4.97;100.00;161866.63;5073079;28;20033;-62
2023/04/13 02:10:33;;;;;;;3.33;3.05;;;;;;;4.96;100.00;161862.63;5071333;28;20385;-61
2023/04/13 02:13:00;;;;;;;5.05;2.70;;;;;;;4.98;100.00;161869.31;5072786;28;20021;-61
2023/04/13 02:15:25;;;;;;;7.82;4.45;;;;;;;4.97;100.00;161866.63;5071448;28;20045;-62
2023/04/13 02:17:51;;;;;;;7.10;5.75;;;;;;;4.96;100.00;161863.94;5072784;28;20459;-62
2023/04/13 02:20:17;;;;;;;3.95;2.55;;;;;;;4.97;100.00;161865.31;5071384;28;20044;-62
2023/04/13 02:22:42;;;;;;;8.65;2.97;;;;;;;4.97;100.00;161865.31;5072776;28;20033;-62
2023/04/13 02:25:14;;;;;;;4.57;3.80;;;;;;;4.97;100.00;161866.63;5070715;28;20438;-62
2023/04/13 02:27:39;;;;;;;3.10;2.78;;;;;;;4.98;100.00;161869.31;5072965;28;20032;-61
2023/04/13 02:30:06;;;;;;;6.32;2.97;;;;;;;5.02;100.00;161878.75;5071030;28;20499;-61
2023/04/13 02:32:33;;;;;;;2.90;2.70;;;;;;;5.03;100.00;161882.75;5072345;28;20020;-62
2023/04/13 02:34:59;;;;;;;6.38;4.15;;;;;;;5.03;100.00;161881.44;5070980;28;20037;-62
2023/04/13 02:37:25;;;;;;;3.50;2.90;;;;;;;5.07;100.00;161893.53;5072899;28;20070;-61
2023/04/13 02:39:50;;;;;;;5.05;3.05;;;;;;;5.08;100.00;161896.25;5070711;28;20028;-61
2023/04/13 02:42:16;;;;;;;10.65;3.90;;;;;;;5.08;100.00;161894.88;5072494;28;20043;-61
2023/04/13 02:44:41;;;;;;;4.72;2.58;;;;;;;5.08;100.00;161896.25;5071025;28;20033;-61
2023/04/13 02:47:08;;;;;;;3.30;2.83;;;;;;;5.13;100.00;161906.97;5071818;28;20479;-61
2023/04/13 02:49:33;;;;;;;4.95;4.00;;;;;;;5.13;100.00;161906.97;5070975;28;20044;-61
2023/04/13 02:51:59;;;;;;;6.60;4.38;;;;;;;5.10;100.00;161898.94;5071904;28;20385;-60
2023/04/13 02:54:24;;;;;;;8.50;3.72;;;;;;;5.13;100.00;161906.97;5070605;28;20032;-61
2023/04/13 02:56:50;;;;;;;5.20;2.65;;;;;;;5.13;100.00;161906.97;5072251;28;20024;-61
2023/04/13 02:59:15;;;;;;;6.07;3.65;;;;;;;5.15;100.00;161913.69;5070590;28;20426;-61
2023/04/13 03:01:41;;;;;;;5.22;4.00;;;;;;;5.14;100.00;161909.69;5071318;28;20024;-61
2023/04/13 03:04:07;;;;;;;10.93;3.00;;;;;;;5.20;100.00;161925.81;5070286;28;20025;-61
2023/04/13 03:06:32;;;;;;;5.35;4.22;;;;;;;5.25;100.00;161939.25;5071859;28;20028;-61
2023/04/13 03:08:58;;;;;;;5.70;2.35;;;;;;;5.25;100.00;161939.25;5069738;28;20043;-60
2023/04/13 03:11:23;;;;;;;7.18;3.15;;;;;;;5.29;100.00;161948.72;5071498;28;20016;-60
2023/04/13 03:13:49;;;;;;;8.10;2.60;;;;;;;5.22;100.00;161932.53;5071882;28;20033;-60
2023/04/13 03:16:16;;;;;;;2.47;2.22;;;;;;;5.25;100.00;161939.25;5068399;28;20045;-60
2023/04/13 03:18:41;;;;;;;4.05;2.47;;;;;;;5.36;100.00;161968.88;5071698;28;20020;-60
2023/04/13 03:21:07;;;;;;;4.05;2.50;;;;;;;5.39;100.00;161976.97;5069594;28;20094;-59
2023/04/13 03:23:32;;;;;;;8.52;2.65;;;;;;;5.42;100.00;161982.31;5071223;28;20085;-60
2023/04/13 03:25:58;;;;;;;5.88;3.33;;;;;;;5.42;100.00;161982.31;5069408;28;20047;-60
2023/04/13 03:28:23;;;;;;;4.28;2.63;;;;;;;5.46;100.00;161993.09;5071413;28;20024;-59
2023/04/13 03:30:48;;;;;;;6.22;2.78;;;;;;;5.45;100.00;161990.41;5069541;28;20041;-61
2023/04/13 03:33:14;;;;;;;6.68;2.63;;;;;;;5.50;100.00;162005.19;5071017;28;20035;-60
2023/04/13 03:35:39;;;;;;;5.32;2.60;;;;;;;5.46;100.00;161993.09;5069725;28;20118;-61
2023/04/13 03:38:05;;;;;;;5.93;2.22;;;;;;;5.52;100.00;162010.56;5070641;28;20033;-61
2023/04/13 03:40:30;;;;;;;4.00;2.28;;;;;;;5.56;100.00;162019.97;5069676;28;20048;-61
2023/04/13 03:42:55;;;;;;;4.30;3.97;;;;;;;5.54;100.00;162014.63;5070886;28;20028;-61
2023/04/13 03:45:21;;;;;;;9.75;4.22;;;;;;;5.55;100.00;162017.28;5069087;28;20040;-61
2023/04/13 03:47:46;;;;;;;3.47;3.17;;;;;;;5.55;100.00;162017.28;5070749;28;20020;-61
2023/04/13 03:50:12;;;;;;;7.13;2.95;;;;;;;5.59;100.00;162026.69;5069391;28;20059;-61
2023/04/13 03:52:37;;;;;;;3.38;2.42;;;;;;;5.58;100.00;162025.38;5070956;28;20012;-62
2023/04/13 03:55:03;;;;;;;7.28;2.90;;;;;;;5.60;100.00;162029.38;5069167;28;20059;-62
2023/04/13 03:57:28;;;;;;;6.75;2.72;;;;;;;5.59;100.00;162028.06;5071143;28;20115;-61
2023/04/13 03:59:54;;;;;;;7.10;3.28;;;;;;;5.58;100.00;162025.38;5068668;28;20059;-61
2023/04/13 04:02:20;;;;;;;13.57;3.85;;;;;;;5.56;100.00;162019.97;5070773;28;20028;-61
2023/04/13 04:04:46;;;;;;;7.45;3.35;;;;;;;5.60;100.00;162030.75;5086362;28;20040;-62
2023/04/13 04:07:11;;;;;;;2.30;2.10;;;;;;;5.53;100.00;162013.25;5089800;28;20391;-61
2023/04/13 04:09:37;;;;;;;3.85;3.03;;;;;;;5.52;100.00;162009.22;5089459;28;20036;-61
2023/04/13 04:12:03;;;;;;;5.30;3.17;;;;;;;5.45;100.00;161990.41;5090721;28;20024;-61
2023/04/13 04:14:28;;;;;;;5.47;3.47;;;;;;;5.39;100.00;161976.97;5089340;28;20040;-61
2023/04/13 04:16:54;;;;;;;9.27;3.85;;;;;;;5.25;100.00;161939.25;5090493;28;20013;-59
2023/04/13 04:19:19;;;;;;;4.78;3.47;;;;;;;5.27;100.00;161944.66;5084960;28;20499;-59
2023/04/13 04:21:45;;;;;;;4.80;4.13;;;;;;;5.25;100.00;161939.25;5089448;28;20043;-60
2023/04/13 04:24:21;;;;;;;8.68;4.38;;;;;;;5.22;100.00;161931.19;5081016;28;20426;-61
2023/04/13 04:26:53;;;;;;;4.32;3.30;;;;;;;5.12;100.00;161905.66;5082181;28;20030;-60
2023/04/13 04:29:20;;;;;;;4.25;3.85;;;;;;;5.12;100.00;161904.28;5089202;28;20036;-59
2023/04/13 04:31:51;;;;;;;3.13;2.83;;;;;;;5.09;100.00;161897.56;5076542;28;20103;-59
2023/04/13 04:34:17;;;;;;;8.82;5.30;;;;;;;5.08;100.00;161896.25;5069551;28;21185;-61
2023/04/13 04:36:49;;;;;;;6.07;4.00;;;;;;;5.08;100.00;161896.25;5082195;28;20039;-60
2023/04/13 04:39:20;;;;;;;5.60;3.35;;;;;;;5.09;100.00;161897.56;5088745;28;20386;-60
2023/04/13 04:41:46;;;;;;;4.50;4.05;;;;;;;5.06;100.00;161890.84;5090948;28;20024;-61
2023/04/13 04:44:15;;;;;;;6.38;5.75;;;;;;;5.03;100.00;161882.75;5085156;28;20032;-61
2023/04/13 04:46:42;;;;;;;6.65;4.85;;;;;;;4.99;100.00;161872.03;5070659;28;20025;-61
2023/04/13 04:49:08;;;;;;;9.02;4.75;;;;;;;4.95;100.00;161861.28;5068646;28;20074;-61
2023/04/13 04:51:34;;;;;;;6.97;3.65;;;;;;;4.90;100.00;161847.81;5069939;28;20032;-61
2023/04/13 04:54:01;;;;;;;9.35;4.93;;;;;;;4.80;100.00;161822.25;5068504;28;20017;-60
2023/04/13 04:56:26;;;;;;;8.70;3.95;;;;;;;4.83;100.00;161830.34;5070583;28;20545;-61
2023/04/13 04:58:51;;;;;;;7.40;4.53;;;;;;;4.84;100.00;161831.69;5069588;28;20045;-60
2023/04/13 05:01:21;;;;;;;6.53;3.80;;;;;;;4.81;100.00;161823.59;5086909;28;20044;-60
2023/04/13 05:03:47;;;;;;;4.32;3.92;;;;;;;4.78;100.00;161816.88;5071240;28;20510;-60
2023/04/13 05:06:12;;;;;;;8.00;5.75;;;;;;;4.82;100.00;161827.66;5066649;28;20044;-60
2023/04/13 05:08:37;;;;;;;8.70;4.10;;;;;;;4.93;100.00;161855.91;5069109;28;20028;-59
2023/04/13 05:11:05;;;;;;;6.82;3.85;;;;;;;5.07;100.00;161893.53;5067443;28;20033;-60
2023/04/13 05:13:31;;;;;;;12.52;4.32;;;;;;;5.12;100.00;161904.28;5072854;28;20486;-60
2023/04/13 05:15:56;;;;;;;10.75;4.75;;;;;;;5.12;100.00;161904.28;5067166;28;20059;-60
2023/04/13 05:18:21;;;;;;;6.60;3.65;;;;;;;5.06;100.00;161890.84;5069307;28;20028;-60
2023/04/13 05:20:47;;;;;;;4.55;4.13;;;;;;;5.05;100.00;161888.16;5069615;28;20071;-60
2023/04/13 05:23:12;;;;;;;12.23;6.50;;;;;;;4.93;100.00;161857.22;5071996;28;20036;-60
2023/04/13 05:25:38;;;;;;;8.00;4.63;;;;;;;5.19;100.00;161923.13;5071070;28;20037;-60
2023/04/13 05:28:04;;;;;;;4.90;3.70;;;;;;;5.22;100.00;161931.19;5072527;28;20475;-60
2023/04/13 05:30:29;;;;;;;10.45;5.15;;;;;;;5.32;100.00;161958.13;5071263;28;20074;-60
2023/04/13 05:32:55;;;;;;;7.78;4.07;;;;;;;5.34;100.00;161963.47;5075233;28;20016;-60
2023/04/13 05:35:22;;;;;;;3.50;3.20;;;;;;;5.32;100.00;161958.13;5072084;28;20047;-60
2023/04/13 05:37:47;;;;;;;5.70;4.57;;;;;;;5.34;100.00;161962.16;5073214;28;20035;-61
2023/04/13 05:40:13;;;;;;;13.55;5.72;;;;;;;5.42;100.00;161982.31;5077246;28;20048;-58
2023/04/13 05:42:41;;;;;;;5.30;3.88;;;;;;;5.40;100.00;161979.59;5084296;28;20028;-59
2023/04/13 05:45:08;;;;;;;10.83;6.27;;;;;;;5.43;100.00;161985.00;5090766;28;20051;-58
2023/04/13 05:47:34;;;;;;;6.35;5.28;;;;;;;5.43;100.00;161985.00;5077140;28;20470;-59
2023/04/13 05:49:59;;;;;;;4.65;3.83;;;;;;;5.56;100.00;162019.97;5072727;28;20102;-58
2023/04/13 05:52:25;;;;;;;5.47;4.68;;;;;;;5.45;100.00;161990.41;5073067;28;20484;-58
2023/04/13 05:54:51;;;;;;;10.55;4.43;;;;;;;5.58;100.00;162025.38;5072136;28;20037;-58
2023/04/13 05:57:19;;;;;;;12.32;6.93;;;;;;;5.65;100.00;162044.19;5088361;28;20027;-58
2023/04/13 05:59:45;;;;;;;5.13;4.35;;;;;;;5.69;100.00;162055.00;5090038;28;20131;-58
2023/04/13 06:02:10;;;;;;;9.98;6.18;;;;;;;5.78;100.00;162076.47;5093357;28;20513;-58
2023/04/13 06:04:35;;;;;;;10.68;5.15;;;;;;;5.82;100.00;162088.59;5084923;28;20473;-58
2023/04/13 06:07:01;;;;;;;6.45;4.70;;;;;;;5.86;100.00;162098.00;5067816;28;20020;-58
2023/04/13 06:09:27;;;;;;;6.70;5.55;;;;;;;5.98;100.00;162130.34;5071854;28;20442;-58
2023/04/13 06:11:53;;;;;;;20.50;5.90;;;;;;;6.03;100.00;162143.84;5072803;28;20055;-58
2023/04/13 06:14:19;;;;;;;8.55;5.60;;;;;;;5.99;100.00;162133.09;5069913;28;20423;-58
2023/04/13 06:16:45;;;;;;;7.72;5.43;;;;;;;6.05;100.00;162147.84;5073870;28;20600;-58
2023/04/13 06:19:11;;;;;;;11.65;7.10;;;;;;;6.06;100.00;162149.22;5072873;28;20039;-58
2023/04/13 06:21:36;;;;;;;22.00;6.72;;;;;;;6.12;100.00;162165.38;5081120;28;20077;-59
2023/04/13 06:24:02;;;;;;;6.97;6.22;;;;;;;6.27;100.00;162205.75;5081652;28;20429;-58
2023/04/13 06:26:27;;;;;;;14.02;5.57;;;;;;;6.39;100.00;162235.34;5092931;28;20023;-58
2023/04/13 06:28:53;;;;;;;9.20;6.60;;;;;;;6.40;100.00;162239.41;5092780;28;20102;-58
2023/04/13 06:31:19;;;;;;;11.48;6.00;;;;;;;6.34;100.00;162224.59;5090928;28;20032;-58
2023/04/13 06:33:45;;;;;;;9.80;6.72;;;;;;;6.39;100.00;162235.34;5087035;28;20507;-58
2023/04/13 06:36:11;;;;;;;14.95;7.45;;;;;;;6.49;100.00;162262.28;5070658;28;20044;-58
2023/04/13 06:38:36;;;;;;;8.75;5.70;;;;;;;6.69;100.00;162313.44;5072802;28;20032;-58
2023/04/13 06:41:02;;;;;;;12.73;6.50;;;;;;;6.93;100.00;162378.06;5075041;28;20098;-58
2023/04/13 06:43:27;;;;;;;6.53;5.93;;;;;;;7.03;100.00;162402.31;5083200;28;20528;-58
2023/04/13 06:46:01;;;;;;;6.28;5.10;;;;;;;7.06;100.00;162410.38;5050619;28;20048;-58
2023/04/13 06:48:26;;;;;;;10.75;6.97;;;;;;;7.23;100.00;162456.19;5056528;28;20605;-57
2023/04/13 06:50:55;;;;;;;10.80;7.13;;;;;;;7.25;100.00;162461.59;5063903;28;20083;-58
2023/04/13 06:53:21;;;;;;;6.30;5.70;;;;;;;7.14;100.00;162431.94;5072135;28;20635;-58
2023/04/13 06:55:46;;;;;;;9.55;5.88;;;;;;;7.13;100.00;162429.22;5071070;28;20041;-58
2023/04/13 06:58:11;;;;;;;14.50;5.90;;;;;;;7.25;100.00;162461.59;5071682;28;20549;-58
2023/04/13 07:00:37;;;;;;;5.60;5.07;;;;;;;7.35;100.00;162485.78;5071615;28;20410;-58
2023/04/13 07:03:02;;;;;;;15.05;5.93;;;;;;;7.27;100.00;162465.63;5071758;28;20036;-58
2023/04/13 07:05:28;;;;;;;5.88;5.05;;;;;;;7.19;100.00;162445.38;5070164;28;20040;-58
2023/04/13 07:07:53;;;;;;;10.30;5.70;;;;;;;7.15;100.00;162434.63;5072035;28;20099;-58
2023/04/13 07:10:19;;;;;;;7.13;5.43;;;;;;;7.11;100.00;162423.88;5071516;28;20037;-58
2023/04/13 07:12:44;;;;;;;6.45;5.85;;;;;;;7.06;100.00;162411.75;5071822;28;20027;-57
2023/04/13 07:15:09;;;;;;;17.52;6.32;;;;;;;7.08;100.00;162415.78;5070077;28;20102;-58
2023/04/13 07:17:35;;;;;;;11.18;8.20;;;;;;;7.05;100.00;162407.66;5071741;28;20540;-58
2023/04/13 07:20:01;;;;;;;16.05;7.72;;;;;;;6.82;100.00;162349.78;5069644;28;20090;-58
2023/04/13 07:22:30;;;;;;;16.40;7.60;;;;;;;6.77;100.00;162334.97;5071831;28;20486;-58
2023/04/13 07:24:56;;;;;;;9.25;6.47;;;;;;;6.76;100.00;162332.28;5070019;28;20036;-58
2023/04/13 07:27:21;;;;;;;8.10;6.60;;;;;;;6.70;100.00;162316.13;5071084;28;20066;-58
2023/04/13 07:29:50;;;;;;;7.60;6.88;;;;;;;6.65;100.00;162305.38;5070399;28;20047;-58
2023/04/13 07:32:15;;;;;;;10.48;7.13;;;;;;;6.62;100.00;162297.28;5071756;28;20016;-58
2023/04/13 07:34:40;;;;;;;13.13;9.68;;;;;;;6.56;100.00;162281.13;5069787;28;20036;-57
2023/04/13 07:37:06;;;;;;;7.93;7.32;;;;;;;6.57;100.00;162282.44;5072302;28;20024;-58
2023/04/13 07:39:32;;;;;;;8.15;7.35;;;;;;;6.57;100.00;162282.44;5069957;28;20036;-58
2023/04/13 07:41:57;;;;;;;9.68;7.80;;;;;;;6.56;100.00;162281.13;5070135;28;20036;-58
2023/04/13 07:44:22;;;;;;;7.85;6.95;;;;;;;6.60;100.00;162291.88;5082041;28;20036;-58
2023/04/13 07:46:48;;;;;;;11.75;7.78;;;;;;;6.79;100.00;162341.69;5091661;28;20012;-58
2023/04/13 07:49:13;;;;;;;7.22;6.63;;;;;;;6.97;100.00;162388.81;5089577;28;20402;-58
2023/04/13 07:51:38;;;;;;;12.05;6.78;;;;;;;7.03;100.00;162402.31;5089809;28;20042;-58
2023/04/13 07:54:04;;;;;;;13.20;8.43;;;;;;;6.94;100.00;162379.41;5089876;28;20020;-57
2023/04/13 07:56:32;;;;;;;8.05;6.30;;;;;;;6.92;100.00;162374.03;5091068;28;20020;-58
2023/04/13 07:58:57;;;;;;;7.05;6.43;;;;;;;6.85;100.00;162356.53;5090058;28;20449;-57
2023/04/13 08:01:22;;;;;;;9.52;7.18;;;;;;;6.76;100.00;162332.28;5091373;28;20081;-58
2023/04/13 08:03:48;;;;;;;7.55;6.78;;;;;;;6.64;100.00;162302.69;5089356;28;20417;-58
2023/04/13 08:06:13;;;;;;;5.97;5.53;;;;;;;6.53;100.00;162273.03;5070957;28;20044;-58
2023/04/13 08:08:39;;;;;;;7.32;5.22;;;;;;;6.38;100.00;162234.03;5075993;28;20382;-57
2023/04/13 08:11:04;;;;;;;7.55;5.60;;;;;;;6.39;100.00;162236.72;5089568;28;20028;-58
2023/04/13 08:13:30;;;;;;;10.73;5.57;;;;;;;6.35;100.00;162225.91;5090806;28;20024;-58
2023/04/13 08:15:56;;;;;;;8.65;5.13;;;;;;;6.37;100.00;162231.31;5089382;28;20122;-57
2023/04/13 08:18:26;;;;;;;6.47;5.68;;;;;;;6.40;100.00;162238.03;5091113;28;20028;-58
2023/04/13 08:20:53;;;;;;;6.47;5.88;;;;;;;6.31;100.00;162216.50;5088580;28;20568;-58
2023/04/13 08:23:19;;;;;;;6.78;5.93;;;;;;;6.34;100.00;162224.59;5088755;28;20550;-58
2023/04/13 08:25:44;;;;;;;10.63;8.30;;;;;;;6.30;100.00;162213.78;5089004;28;20055;-57
2023/04/13 08:28:09;;;;;;;5.75;4.93;;;;;;;6.31;100.00;162216.50;5090488;28;20175;-58
2023/04/13 08:30:35;;;;;;;7.90;6.82;;;;;;;6.38;100.00;162232.63;5089461;28;20041;-58
2023/04/13 08:33:01;;;;;;;8.57;6.00;;;;;;;6.59;100.00;162287.84;5090586;28;20536;-58
2023/04/13 08:35:27;;;;;;;6.60;6.00;;;;;;;7.34;100.00;162483.09;5084996;28;20040;-58
2023/04/13 08:37:55;;;;;;;6.20;5.47;;;;;;;7.54;100.00;162537.00;5070564;28;20028;-58
2023/04/13 08:40:21;;;;;;;17.48;6.47;;;;;;;7.51;100.00;162528.91;5069312;28;20037;-58
2023/04/13 08:42:47;;;;;;;6.43;5.32;;;;;;;7.42;100.00;162506.03;5070540;28;20021;-58
2023/04/13 08:45:13;;;;;;;8.65;6.15;;;;;;;7.46;100.00;162515.44;5068568;28;20534;-58
2023/04/13 08:47:40;;;;;;;8.32;6.55;;;;;;;7.55;100.00;162539.72;5070351;28;20093;-58
2023/04/13 08:50:06;;;;;;;9.43;7.18;;;;;;;7.63;100.00;162559.91;5068570;28;20032;-58
2023/04/13 08:52:33;;;;;;;7.53;6.72;;;;;;;7.62;100.00;162558.56;5070922;28;20147;-58
2023/04/13 08:55:01;;;;;;;12.52;7.72;;;;;;;7.57;100.00;162543.75;5072916;28;20486;-58
2023/04/13 08:57:28;;;;;;;6.65;5.75;;;;;;;7.68;100.00;162572.03;5074179;28;20025;-58
2023/04/13 08:59:55;;;;;;;13.95;8.70;;;;;;;8.05;100.00;162669.03;5073935;28;20044;-58
2023/04/13 09:02:27;;;;;;;9.63;5.88;;;;;;;8.37;100.00;162752.63;5074575;28;20048;-58
2023/04/13 09:04:55;;;;;;;8.70;6.75;;;;;;;8.33;100.00;162741.81;5072624;28;20041;-58
2023/04/13 09:07:27;;;;;;;9.05;6.47;;;;;;;8.16;100.00;162698.66;5085896;28;20035;-58
2023/04/13 09:09:58;;;;;;;9.85;6.43;;;;;;;7.97;100.00;162647.47;5092959;28;20524;-59
2023/04/13 09:12:25;;;;;;;8.07;5.70;;;;;;;7.77;100.00;162596.28;5094290;28;20048;-58
2023/04/13 09:14:50;;;;;;;10.40;7.95;;;;;;;7.76;100.00;162593.59;5093054;28;20043;-59
2023/04/13 09:17:28;;;;;;;7.75;6.18;;;;;;;7.68;100.00;162572.03;5094434;28;20390;-59
2023/04/13 09:20:11;;;;;;;20.65;9.98;;;;;;;7.44;100.00;162510.06;5092076;28;20521;-59
2023/04/13 09:22:36;;;;;;;14.65;8.32;;;;;;;7.34;100.00;162483.09;5092439;28;20162;-59
2023/04/13 09:25:04;;;;;;;11.75;8.23;;;;;;;7.26;100.00;162464.22;5092540;28;20040;-59
2023/04/13 09:27:29;;;;;;;9.95;8.50;;;;;;;7.12;100.00;162426.53;5093958;28;20401;-59
2023/04/13 09:29:55;;;;;;;13.60;8.70;;;;;;;7.18;100.00;162441.34;5073724;28;20115;-59
2023/04/13 09:32:22;;;;;;;17.35;9.23;;;;;;;7.14;100.00;162431.94;5073808;28;20074;-59
2023/04/13 09:35:03;;;;;;;12.05;9.15;;;;;;;6.89;100.00;162367.28;5072078;28;20036;-59
2023/04/13 09:37:29;;;;;;;13.43;8.93;;;;;;;6.80;100.00;162344.41;5074021;28;20102;-59
2023/04/13 09:39:54;;;;;;;13.13;8.55;;;;;;;6.83;100.00;162351.13;5073063;28;20488;-59
2023/04/13 09:42:20;;;;;;;6.53;4.80;;;;;;;6.66;100.00;162308.03;5073281;28;20033;-59
2023/04/13 09:44:56;;;;;;;6.13;5.50;;;;;;;6.62;100.00;162297.28;5072269;28;20091;-59
2023/04/13 09:47:21;;;;;;;7.65;4.30;;;;;;;6.50;100.00;162266.31;5073628;28;20426;-59
2023/04/13 09:49:47;;;;;;;4.75;3.30;;;;;;;6.43;100.00;162246.13;5071879;28;20097;-59
2023/04/13 09:52:19;;;;;;;3.35;3.10;;;;;;;6.40;100.00;162238.03;5073153;28;20028;-59
2023/04/13 09:54:49;;;;;;;4.32;3.92;;;;;;;6.55;100.00;162278.44;5071902;28;20396;-59
2023/04/13 09:57:24;;;;;;;6.93;4.88;;;;;;;6.85;100.00;162356.53;5072908;28;20021;-59
2023/04/13 09:59:51;;;;;;;18.40;5.80;;;;;;;7.22;100.00;162453.47;5071891;28;20522;-59
2023/04/13 10:02:18;;;;;;;16.13;7.68;;;;;;;7.61;100.00;162555.88;5072926;28;20025;-59
2023/04/13 10:04:44;;;;;;;8.15;6.05;;;;;;;8.05;100.00;162669.03;5070939;28;20044;-59
2023/04/13 10:07:10;;;;;;;10.02;6.25;;;;;;;8.60;100.00;162811.97;5073152;28;20389;-59
2023/04/13 10:09:35;;;;;;;18.98;7.10;;;;;;;9.07;100.00;162936.00;5072717;28;20040;-59
2023/04/13 10:12:02;;;;;;;10.52;6.65;;;;;;;9.43;100.00;163030.38;5072942;28;20024;-59
2023/04/13 10:14:33;;;;;;;11.02;6.40;;;;;;;10.41;100.00;163286.81;5071638;28;20033;-60
2023/04/13 10:17:11;;;;;;;6.47;4.68;;;;;;;11.30;100.00;163519.00;5072831;28;20021;-60
2023/04/13 10:19:42;;;;;;;10.35;4.57;;;;;;;11.59;100.00;163594.63;5071615;28;20087;-59
2023/04/13 10:22:08;;;;;;;7.32;4.15;;;;;;;11.54;100.00;163581.13;5072565;28;20480;-60
2023/04/13 10:24:34;;;;;;;9.77;4.47;;;;;;;11.29;100.00;163516.28;5090977;28;20119;-59
2023/04/13 10:27:10;;;;;;;11.43;4.18;;;;;;;11.09;100.00;163465.00;5092677;28;20028;-60
2023/04/13 10:29:35;;;;;;;18.77;4.47;;;;;;;11.01;100.00;163442.06;5091841;28;20452;-60
2023/04/13 10:32:04;;;;;;;7.25;4.88;;;;;;;10.87;100.00;163405.59;5081630;28;20035;-60
2023/04/13 10:34:31;;;;;;;9.85;4.05;;;;;;;10.90;100.00;163413.72;5071568;28;20036;-59
2023/04/13 10:36:58;;;;;;;10.30;3.42;;;;;;;10.78;100.00;163382.66;5072526;28;20099;-59
2023/04/13 10:39:28;;;;;;;6.95;3.28;;;;;;;10.79;100.00;163385.38;5071391;28;20037;-60
2023/04/13 10:42:05;;;;;;;7.50;3.58;;;;;;;10.32;100.00;163262.44;5072124;28;20073;-59
2023/04/13 10:44:40;;;;;;;8.50;3.25;;;;;;;9.91;100.00;163155.84;5071006;28;20458;-59
2023/04/13 10:47:07;;;;;;;8.88;3.92;;;;;;;8.97;100.00;162910.38;5072058;28;20029;-59
2023/04/13 10:49:32;;;;;;;11.57;4.25;;;;;;;8.50;100.00;162787.72;5070907;28;20474;-59
2023/04/13 10:51:58;;;;;;;17.35;5.03;;;;;;;8.22;100.00;162713.50;5073286;28;20043;-60
2023/04/13 10:54:28;;;;;;;19.08;4.35;;;;;;;8.23;100.00;162717.53;5074678;28;20041;-59
2023/04/13 10:57:02;;;;;;;12.77;3.58;;;;;;;8.53;100.00;162795.75;5070787;28;20386;-59
2023/04/13 10:59:38;;;;;;;12.70;5.80;;;;;;;8.97;100.00;162909.06;5071019;28;20151;-59
2023/04/13 11:02:15;;;;;;;21.05;6.45;;;;;;;9.84;100.00;163138.34;5075670;28;20031;-59
2023/04/13 11:04:46;;;;;;;11.52;4.80;;;;;;;10.46;100.00;163300.28;5070955;28;20040;-59
2023/04/13 11:07:13;;;;;;;8.15;3.72;;;;;;;10.81;100.00;163389.41;5071869;28;20472;-60
2023/04/13 11:09:41;;;;;;;10.23;4.43;;;;;;;10.74;100.00;163371.84;5069925;28;20044;-60
2023/04/13 11:12:09;;;;;;;16.40;4.00;;;;;;;10.65;100.00;163348.91;5071789;28;20024;-59
2023/04/13 11:14:37;;;;;;;13.73;4.38;;;;;;;10.22;100.00;163235.47;5070500;28;20052;-60
2023/04/13 11:17:07;;;;;;;14.30;5.32;;;;;;;10.00;100.00;163178.81;5071644;28;20031;-59
2023/04/13 11:19:33;;;;;;;9.73;3.25;;;;;;;9.95;100.00;163165.28;5070520;28;20111;-59
2023/04/13 11:22:00;;;;;;;13.48;4.05;;;;;;;9.50;100.00;163049.28;5071793;28;20056;-59